sensor_id;sensor_type;location;lat;lon;timestamp;P1;durP1;ratioP1;P2;durP2;ratioP2
27666;SDS011;15074;50.940;5.282;2023-04-25T00:01:10;16.52;;;4.32;;
27666;SDS011;15074;50.940;5.282;2023-04-25T00:03:38;15.45;;;4.57;;
27666;SDS011;15074;50.940;5.282;2023-04-25T00:06:05;8.70;;;4.28;;
27666;SDS011;15074;50.940;5.282;2023-04-25T00:08:31;12.25;;;4.43;;
27666;SDS011;15074;50.940;5.282;2023-04-25T00:10:57;7.70;;;4.45;;
27666;SDS011;15074;50.940;5.282;2023-04-25T00:13:24;14.02;;;5.43;;
27666;SDS011;15074;50.940;5.282;2023-04-25T00:15:50;14.07;;;4.68;;
27666;SDS011;15074;50.940;5.282;2023-04-25T00:18:21;11.65;;;3.80;;
27666;SDS011;15074;50.940;5.282;2023-04-25T00:20:47;11.30;;;4.45;;
27666;SDS011;15074;50.940;5.282;2023-04-25T00:23:15;8.82;;;4.10;;
27666;SDS011;15074;50.940;5.282;2023-04-25T00:25:44;11.25;;;4.50;;
27666;SDS011;15074;50.940;5.282;2023-04-25T00:28:11;17.08;;;5.40;;
27666;SDS011;15074;50.940;5.282;2023-04-25T00:30:37;13.63;;;4.93;;
27666;SDS011;15074;50.940;5.282;2023-04-25T00:33:03;10.90;;;4.22;;
27666;SDS011;15074;50.940;5.282;2023-04-25T00:35:29;12.98;;;4.53;;
27666;SDS011;15074;50.940;5.282;2023-04-25T00:37:55;9.60;;;4.78;;
27666;SDS011;15074;50.940;5.282;2023-04-25T00:40:21;11.38;;;4.20;;
27666;SDS011;15074;50.940;5.282;2023-04-25T00:42:47;14.38;;;4.68;;
27666;SDS011;15074;50.940;5.282;2023-04-25T00:45:13;8.77;;;4.53;;
27666;SDS011;15074;50.940;5.282;2023-04-25T00:47:40;19.85;;;5.00;;
27666;SDS011;15074;50.940;5.282;2023-04-25T00:50:07;9.50;;;4.53;;
27666;SDS011;15074;50.940;5.282;2023-04-25T00:52:33;7.63;;;4.18;;
27666;SDS011;15074;50.940;5.282;2023-04-25T00:54:59;14.23;;;5.13;;
27666;SDS011;15074;50.940;5.282;2023-04-25T00:57:25;16.95;;;5.10;;
27666;SDS011;15074;50.940;5.282;2023-04-25T00:59:51;14.68;;;5.13;;
27666;SDS011;15074;50.940;5.282;2023-04-25T01:02:19;10.43;;;5.18;;
27666;SDS011;15074;50.940;5.282;2023-04-25T01:04:45;14.43;;;4.57;;
27666;SDS011;15074;50.940;5.282;2023-04-25T01:07:12;21.52;;;4.75;;
27666;SDS011;15074;50.940;5.282;2023-04-25T01:09:38;8.70;;;3.97;;
27666;SDS011;15074;50.940;5.282;2023-04-25T01:12:04;8.57;;;5.20;;
27666;SDS011;15074;50.940;5.282;2023-04-25T01:14:30;9.45;;;4.88;;
27666;SDS011;15074;50.940;5.282;2023-04-25T01:16:56;12.68;;;4.03;;
27666;SDS011;15074;50.940;5.282;2023-04-25T01:19:22;13.05;;;4.20;;
27666;SDS011;15074;50.940;5.282;2023-04-25T01:21:49;13.55;;;4.68;;
27666;SDS011;15074;50.940;5.282;2023-04-25T01:24:15;15.00;;;4.28;;
27666;SDS011;15074;50.940;5.282;2023-04-25T01:26:41;9.00;;;4.68;;
27666;SDS011;15074;50.940;5.282;2023-04-25T01:29:15;10.32;;;3.97;;
27666;SDS011;15074;50.940;5.282;2023-04-25T01:31:45;7.40;;;4.05;;
27666;SDS011;15074;50.940;5.282;2023-04-25T01:34:12;11.68;;;4.60;;
27666;SDS011;15074;50.940;5.282;2023-04-25T01:36:38;11.95;;;3.83;;
27666;SDS011;15074;50.940;5.282;2023-04-25T01:39:04;10.38;;;4.65;;
27666;SDS011;15074;50.940;5.282;2023-04-25T01:41:30;10.43;;;4.13;;
27666;SDS011;15074;50.940;5.282;2023-04-25T01:43:56;9.38;;;4.13;;
27666;SDS011;15074;50.940;5.282;2023-04-25T01:46:22;13.85;;;5.38;;
27666;SDS011;15074;50.940;5.282;2023-04-25T01:48:48;11.10;;;4.07;;
27666;SDS011;15074;50.940;5.282;2023-04-25T01:51:14;14.95;;;5.15;;
27666;SDS011;15074;50.940;5.282;2023-04-25T01:53:40;18.70;;;5.13;;
27666;SDS011;15074;50.940;5.282;2023-04-25T01:56:06;8.63;;;4.78;;
27666;SDS011;15074;50.940;5.282;2023-04-25T01:58:32;11.77;;;5.30;;
27666;SDS011;15074;50.940;5.282;2023-04-25T02:00:57;9.13;;;4.65;;
27666;SDS011;15074;50.940;5.282;2023-04-25T02:03:23;12.07;;;5.55;;
27666;SDS011;15074;50.940;5.282;2023-04-25T02:05:49;13.05;;;4.72;;
27666;SDS011;15074;50.940;5.282;2023-04-25T02:08:15;11.15;;;4.93;;
27666;SDS011;15074;50.940;5.282;2023-04-25T02:13:08;9.30;;;4.57;;
27666;SDS011;15074;50.940;5.282;2023-04-25T02:15:34;11.02;;;4.40;;
27666;SDS011;15074;50.940;5.282;2023-04-25T02:18:00;7.70;;;4.75;;
27666;SDS011;15074;50.940;5.282;2023-04-25T02:20:27;9.75;;;3.70;;
27666;SDS011;15074;50.940;5.282;2023-04-25T02:22:53;17.63;;;4.95;;
27666;SDS011;15074;50.940;5.282;2023-04-25T02:25:19;9.38;;;4.65;;
27666;SDS011;15074;50.940;5.282;2023-04-25T02:27:46;13.20;;;4.75;;
27666;SDS011;15074;50.940;5.282;2023-04-25T02:30:12;11.48;;;5.07;;
27666;SDS011;15074;50.940;5.282;2023-04-25T02:32:38;11.50;;;5.75;;
27666;SDS011;15074;50.940;5.282;2023-04-25T02:35:05;11.02;;;5.03;;
27666;SDS011;15074;50.940;5.282;2023-04-25T02:37:32;13.02;;;5.55;;
27666;SDS011;15074;50.940;5.282;2023-04-25T02:39:58;11.25;;;4.60;;
27666;SDS011;15074;50.940;5.282;2023-04-25T02:42:24;15.48;;;5.10;;
27666;SDS011;15074;50.940;5.282;2023-04-25T02:44:49;10.70;;;4.55;;
27666;SDS011;15074;50.940;5.282;2023-04-25T02:47:15;16.95;;;5.47;;
27666;SDS011;15074;50.940;5.282;2023-04-25T02:49:41;12.40;;;5.32;;
27666;SDS011;15074;50.940;5.282;2023-04-25T02:52:06;13.13;;;5.38;;
27666;SDS011;15074;50.940;5.282;2023-04-25T02:54:32;12.40;;;5.32;;
27666;SDS011;15074;50.940;5.282;2023-04-25T02:56:58;12.55;;;5.20;;
27666;SDS011;15074;50.940;5.282;2023-04-25T02:59:23;12.20;;;5.85;;
27666;SDS011;15074;50.940;5.282;2023-04-25T03:01:49;18.17;;;5.90;;
27666;SDS011;15074;50.940;5.282;2023-04-25T03:04:15;12.30;;;6.10;;
27666;SDS011;15074;50.940;5.282;2023-04-25T03:06:40;12.05;;;5.65;;
27666;SDS011;15074;50.940;5.282;2023-04-25T03:09:06;11.65;;;5.65;;
27666;SDS011;15074;50.940;5.282;2023-04-25T03:11:32;12.38;;;5.25;;
27666;SDS011;15074;50.940;5.282;2023-04-25T03:13:57;19.40;;;5.22;;
27666;SDS011;15074;50.940;5.282;2023-04-25T03:16:23;15.05;;;5.97;;
27666;SDS011;15074;50.940;5.282;2023-04-25T03:18:49;11.10;;;5.05;;
27666;SDS011;15074;50.940;5.282;2023-04-25T03:21:15;11.32;;;4.97;;
27666;SDS011;15074;50.940;5.282;2023-04-25T03:23:41;9.13;;;5.30;;
27666;SDS011;15074;50.940;5.282;2023-04-25T03:26:07;13.93;;;6.28;;
27666;SDS011;15074;50.940;5.282;2023-04-25T03:28:33;13.65;;;6.40;;
27666;SDS011;15074;50.940;5.282;2023-04-25T03:30:58;14.02;;;5.78;;
27666;SDS011;15074;50.940;5.282;2023-04-25T03:33:24;11.48;;;5.03;;
27666;SDS011;15074;50.940;5.282;2023-04-25T03:35:50;16.38;;;6.05;;
27666;SDS011;15074;50.940;5.282;2023-04-25T03:38:16;11.90;;;6.13;;
27666;SDS011;15074;50.940;5.282;2023-04-25T04:09:11;9.25;;;4.85;;
27666;SDS011;15074;50.940;5.282;2023-04-25T04:11:40;7.90;;;5.53;;
27666;SDS011;15074;50.940;5.282;2023-04-25T04:14:06;12.35;;;5.20;;
27666;SDS011;15074;50.940;5.282;2023-04-25T04:43:16;12.63;;;3.97;;
27666;SDS011;15074;50.940;5.282;2023-04-25T04:45:43;8.05;;;3.53;;
27666;SDS011;15074;50.940;5.282;2023-04-25T04:48:09;8.70;;;4.50;;
27666;SDS011;15074;50.940;5.282;2023-04-25T04:50:36;10.83;;;3.30;;
27666;SDS011;15074;50.940;5.282;2023-04-25T04:53:03;11.50;;;3.53;;
27666;SDS011;15074;50.940;5.282;2023-04-25T04:55:29;9.93;;;3.95;;
27666;SDS011;15074;50.940;5.282;2023-04-25T04:57:55;6.82;;;3.63;;
27666;SDS011;15074;50.940;5.282;2023-04-25T05:00:21;11.90;;;3.80;;
27666;SDS011;15074;50.940;5.282;2023-04-25T05:02:46;7.93;;;3.85;;
27666;SDS011;15074;50.940;5.282;2023-04-25T05:05:12;6.22;;;3.42;;
27666;SDS011;15074;50.940;5.282;2023-04-25T05:07:38;11.88;;;3.97;;
27666;SDS011;15074;50.940;5.282;2023-04-25T05:10:04;7.90;;;3.25;;
27666;SDS011;15074;50.940;5.282;2023-04-25T05:12:30;5.22;;;3.40;;
27666;SDS011;15074;50.940;5.282;2023-04-25T05:14:55;11.52;;;4.45;;
27666;SDS011;15074;50.940;5.282;2023-04-25T05:17:21;9.68;;;6.43;;
27666;SDS011;15074;50.940;5.282;2023-04-25T05:19:47;18.05;;;6.70;;
27666;SDS011;15074;50.940;5.282;2023-04-25T05:22:12;8.20;;;4.25;;
27666;SDS011;15074;50.940;5.282;2023-04-25T05:24:38;8.27;;;5.97;;
27666;SDS011;15074;50.940;5.282;2023-04-25T05:27:04;10.07;;;5.60;;
27666;SDS011;15074;50.940;5.282;2023-04-25T05:29:30;11.43;;;10.35;;
27666;SDS011;15074;50.940;5.282;2023-04-25T05:31:56;13.38;;;11.35;;
27666;SDS011;15074;50.940;5.282;2023-04-25T05:34:22;14.75;;;11.30;;
27666;SDS011;15074;50.940;5.282;2023-04-25T05:36:48;8.20;;;5.88;;
27666;SDS011;15074;50.940;5.282;2023-04-25T05:39:17;9.30;;;4.38;;
27666;SDS011;15074;50.940;5.282;2023-04-25T05:41:43;9.63;;;6.40;;
27666;SDS011;15074;50.940;5.282;2023-04-25T05:44:08;9.70;;;5.32;;
27666;SDS011;15074;50.940;5.282;2023-04-25T05:46:34;6.05;;;3.67;;
27666;SDS011;15074;50.940;5.282;2023-04-25T05:49:00;11.20;;;3.22;;
27666;SDS011;15074;50.940;5.282;2023-04-25T05:51:26;6.80;;;3.90;;
27666;SDS011;15074;50.940;5.282;2023-04-25T05:53:52;5.90;;;3.78;;
27666;SDS011;15074;50.940;5.282;2023-04-25T05:56:18;9.57;;;4.72;;
27666;SDS011;15074;50.940;5.282;2023-04-25T05:58:44;7.47;;;3.88;;
27666;SDS011;15074;50.940;5.282;2023-04-25T06:01:09;7.88;;;3.97;;
27666;SDS011;15074;50.940;5.282;2023-04-25T06:03:35;18.25;;;4.18;;
27666;SDS011;15074;50.940;5.282;2023-04-25T06:06:02;25.52;;;6.22;;
27666;SDS011;15074;50.940;5.282;2023-04-25T06:08:28;10.65;;;4.90;;
27666;SDS011;15074;50.940;5.282;2023-04-25T06:10:54;17.88;;;6.20;;
27666;SDS011;15074;50.940;5.282;2023-04-25T06:13:20;9.45;;;5.00;;
27666;SDS011;15074;50.940;5.282;2023-04-25T06:15:46;14.13;;;5.70;;
27666;SDS011;15074;50.940;5.282;2023-04-25T06:18:11;21.60;;;7.47;;
27666;SDS011;15074;50.940;5.282;2023-04-25T06:20:37;15.35;;;6.45;;
27666;SDS011;15074;50.940;5.282;2023-04-25T06:23:02;13.85;;;5.15;;
27666;SDS011;15074;50.940;5.282;2023-04-25T06:25:28;13.75;;;5.95;;
27666;SDS011;15074;50.940;5.282;2023-04-25T06:27:54;10.23;;;5.40;;
27666;SDS011;15074;50.940;5.282;2023-04-25T06:30:19;10.95;;;5.72;;
27666;SDS011;15074;50.940;5.282;2023-04-25T06:32:48;10.07;;;5.45;;
27666;SDS011;15074;50.940;5.282;2023-04-25T06:35:14;9.65;;;4.18;;
27666;SDS011;15074;50.940;5.282;2023-04-25T06:37:39;7.85;;;4.90;;
27666;SDS011;15074;50.940;5.282;2023-04-25T06:40:05;13.88;;;5.90;;
27666;SDS011;15074;50.940;5.282;2023-04-25T06:42:31;7.43;;;6.10;;
27666;SDS011;15074;50.940;5.282;2023-04-25T06:44:57;10.25;;;6.28;;
27666;SDS011;15074;50.940;5.282;2023-04-25T06:47:23;10.80;;;5.10;;
27666;SDS011;15074;50.940;5.282;2023-04-25T06:49:49;13.18;;;6.38;;
27666;SDS011;15074;50.940;5.282;2023-04-25T06:52:15;15.68;;;7.38;;
27666;SDS011;15074;50.940;5.282;2023-04-25T06:54:42;17.67;;;6.72;;
27666;SDS011;15074;50.940;5.282;2023-04-25T07:07:31;18.38;;;7.22;;
27666;SDS011;15074;50.940;5.282;2023-04-25T07:09:56;9.73;;;5.78;;
27666;SDS011;15074;50.940;5.282;2023-04-25T09:41:58;3.53;;;1.75;;
27666;SDS011;15074;50.940;5.282;2023-04-25T09:44:24;3.25;;;1.90;;
27666;SDS011;15074;50.940;5.282;2023-04-25T09:46:50;9.32;;;1.70;;
27666;SDS011;15074;50.940;5.282;2023-04-25T09:49:22;4.85;;;1.80;;
27666;SDS011;15074;50.940;5.282;2023-04-25T09:51:54;3.75;;;1.92;;
27666;SDS011;15074;50.940;5.282;2023-04-25T09:54:24;5.85;;;1.70;;
27666;SDS011;15074;50.940;5.282;2023-04-25T09:56:53;4.45;;;1.52;;
27666;SDS011;15074;50.940;5.282;2023-04-25T09:59:22;3.58;;;1.63;;
27666;SDS011;15074;50.940;5.282;2023-04-25T10:01:48;3.72;;;1.35;;
27666;SDS011;15074;50.940;5.282;2023-04-25T10:04:16;3.20;;;1.23;;
27666;SDS011;15074;50.940;5.282;2023-04-25T10:06:48;3.80;;;1.30;;
27666;SDS011;15074;50.940;5.282;2023-04-25T10:09:15;3.15;;;1.45;;
27666;SDS011;15074;50.940;5.282;2023-04-25T10:11:44;3.25;;;1.30;;
27666;SDS011;15074;50.940;5.282;2023-04-25T10:14:12;3.95;;;1.40;;
27666;SDS011;15074;50.940;5.282;2023-04-25T10:16:39;4.35;;;1.75;;
27666;SDS011;15074;50.940;5.282;2023-04-25T10:19:06;3.08;;;1.40;;
27666;SDS011;15074;50.940;5.282;2023-04-25T10:21:32;5.90;;;1.77;;
27666;SDS011;15074;50.940;5.282;2023-04-25T10:24:00;4.25;;;1.95;;
27666;SDS011;15074;50.940;5.282;2023-04-25T10:26:26;5.88;;;1.73;;
27666;SDS011;15074;50.940;5.282;2023-04-25T10:28:59;3.95;;;1.52;;
27666;SDS011;15074;50.940;5.282;2023-04-25T10:31:28;4.43;;;1.50;;
27666;SDS011;15074;50.940;5.282;2023-04-25T10:33:55;3.65;;;1.58;;
27666;SDS011;15074;50.940;5.282;2023-04-25T10:36:22;3.58;;;1.20;;
27666;SDS011;15074;50.940;5.282;2023-04-25T10:38:50;2.97;;;1.00;;
27666;SDS011;15074;50.940;5.282;2023-04-25T10:41:18;2.22;;;0.95;;
27666;SDS011;15074;50.940;5.282;2023-04-25T10:43:46;2.28;;;0.73;;
27666;SDS011;15074;50.940;5.282;2023-04-25T10:46:13;3.80;;;0.73;;
27666;SDS011;15074;50.940;5.282;2023-04-25T10:48:43;3.58;;;1.05;;
27666;SDS011;15074;50.940;5.282;2023-04-25T10:53:45;3.35;;;1.08;;
27666;SDS011;15074;50.940;5.282;2023-04-25T10:56:38;1.25;;;0.63;;
27666;SDS011;15074;50.940;5.282;2023-04-25T11:01:41;1.92;;;0.80;;
27666;SDS011;15074;50.940;5.282;2023-04-25T11:09:27;1.85;;;0.80;;
27666;SDS011;15074;50.940;5.282;2023-04-25T11:11:57;1.70;;;0.77;;
27666;SDS011;15074;50.940;5.282;2023-04-25T11:14:24;1.42;;;0.57;;
27666;SDS011;15074;50.940;5.282;2023-04-25T11:16:54;2.65;;;0.70;;
27666;SDS011;15074;50.940;5.282;2023-04-25T11:19:21;2.47;;;0.60;;
27666;SDS011;15074;50.940;5.282;2023-04-25T11:21:47;3.60;;;1.00;;
27666;SDS011;15074;50.940;5.282;2023-04-25T11:24:13;2.53;;;0.70;;
27666;SDS011;15074;50.940;5.282;2023-04-25T11:26:41;2.72;;;0.65;;
27666;SDS011;15074;50.940;5.282;2023-04-25T11:29:07;2.40;;;0.70;;
27666;SDS011;15074;50.940;5.282;2023-04-25T11:31:33;2.10;;;0.80;;
27666;SDS011;15074;50.940;5.282;2023-04-25T11:33:59;2.45;;;0.77;;
27666;SDS011;15074;50.940;5.282;2023-04-25T11:36:25;3.05;;;0.70;;
27666;SDS011;15074;50.940;5.282;2023-04-25T11:38:52;2.83;;;0.98;;
27666;SDS011;15074;50.940;5.282;2023-04-25T11:41:18;2.03;;;0.90;;
27666;SDS011;15074;50.940;5.282;2023-04-25T11:43:45;2.55;;;1.00;;
27666;SDS011;15074;50.940;5.282;2023-04-25T11:46:11;4.55;;;1.13;;
27666;SDS011;15074;50.940;5.282;2023-04-25T11:48:40;1.23;;;0.60;;
27666;SDS011;15074;50.940;5.282;2023-04-25T11:51:06;2.13;;;0.65;;
27666;SDS011;15074;50.940;5.282;2023-04-25T11:53:32;2.08;;;0.77;;
27666;SDS011;15074;50.940;5.282;2023-04-25T11:55:58;2.17;;;0.75;;
27666;SDS011;15074;50.940;5.282;2023-04-25T11:58:23;1.60;;;0.80;;
27666;SDS011;15074;50.940;5.282;2023-04-25T12:00:50;2.67;;;1.02;;
27666;SDS011;15074;50.940;5.282;2023-04-25T12:03:17;1.88;;;0.90;;
27666;SDS011;15074;50.940;5.282;2023-04-25T12:05:43;2.63;;;0.80;;
27666;SDS011;15074;50.940;5.282;2023-04-25T12:08:11;3.67;;;0.82;;
27666;SDS011;15074;50.940;5.282;2023-04-25T12:10:38;3.65;;;0.90;;
27666;SDS011;15074;50.940;5.282;2023-04-25T12:16:03;5.97;;;1.10;;
27666;SDS011;15074;50.940;5.282;2023-04-25T12:18:29;2.42;;;1.33;;
27666;SDS011;15074;50.940;5.282;2023-04-25T12:20:55;2.75;;;1.40;;
27666;SDS011;15074;50.940;5.282;2023-04-25T12:23:27;3.58;;;1.42;;
27666;SDS011;15074;50.940;5.282;2023-04-25T12:25:53;4.18;;;1.70;;
27666;SDS011;15074;50.940;5.282;2023-04-25T12:28:23;4.25;;;1.50;;
27666;SDS011;15074;50.940;5.282;2023-04-25T12:33:30;2.40;;;1.38;;
27666;SDS011;15074;50.940;5.282;2023-04-25T12:36:00;4.82;;;1.70;;
27666;SDS011;15074;50.940;5.282;2023-04-25T12:38:36;3.78;;;1.50;;
27666;SDS011;15074;50.940;5.282;2023-04-25T12:41:03;2.38;;;1.48;;
27666;SDS011;15074;50.940;5.282;2023-04-25T12:43:29;2.95;;;1.58;;
27666;SDS011;15074;50.940;5.282;2023-04-25T12:45:55;2.05;;;1.23;;
27666;SDS011;15074;50.940;5.282;2023-04-25T12:48:21;2.88;;;1.80;;
27666;SDS011;15074;50.940;5.282;2023-04-25T12:50:48;2.67;;;1.20;;
27666;SDS011;15074;50.940;5.282;2023-04-25T12:53:18;2.97;;;1.38;;
27666;SDS011;15074;50.940;5.282;2023-04-25T12:55:45;3.50;;;1.17;;
27666;SDS011;15074;50.940;5.282;2023-04-25T12:58:12;3.00;;;1.38;;
27666;SDS011;15074;50.940;5.282;2023-04-25T13:00:41;3.72;;;0.82;;
27666;SDS011;15074;50.940;5.282;2023-04-25T13:03:07;1.45;;;0.70;;
27666;SDS011;15074;50.940;5.282;2023-04-25T13:05:34;2.90;;;0.90;;
27666;SDS011;15074;50.940;5.282;2023-04-25T13:08:00;2.58;;;1.00;;
27666;SDS011;15074;50.940;5.282;2023-04-25T13:10:26;2.05;;;0.90;;
27666;SDS011;15074;50.940;5.282;2023-04-25T13:12:51;3.45;;;0.90;;
27666;SDS011;15074;50.940;5.282;2023-04-25T13:15:17;3.78;;;1.27;;
27666;SDS011;15074;50.940;5.282;2023-04-25T13:17:43;2.13;;;1.20;;
27666;SDS011;15074;50.940;5.282;2023-04-25T13:20:09;8.10;;;1.50;;
27666;SDS011;15074;50.940;5.282;2023-04-25T13:22:35;2.67;;;1.33;;
27666;SDS011;15074;50.940;5.282;2023-04-25T13:25:02;3.42;;;1.33;;
27666;SDS011;15074;50.940;5.282;2023-04-25T13:27:29;5.80;;;1.90;;
27666;SDS011;15074;50.940;5.282;2023-04-25T13:29:55;3.50;;;1.35;;
27666;SDS011;15074;50.940;5.282;2023-04-25T13:32:21;3.30;;;1.45;;
27666;SDS011;15074;50.940;5.282;2023-04-25T13:34:46;3.33;;;1.55;;
27666;SDS011;15074;50.940;5.282;2023-04-25T13:37:12;10.57;;;1.95;;
27666;SDS011;15074;50.940;5.282;2023-04-25T13:39:38;5.25;;;1.30;;
27666;SDS011;15074;50.940;5.282;2023-04-25T13:42:04;2.55;;;1.40;;
27666;SDS011;15074;50.940;5.282;2023-04-25T13:44:29;6.78;;;1.27;;
27666;SDS011;15074;50.940;5.282;2023-04-25T13:46:55;2.33;;;1.00;;
27666;SDS011;15074;50.940;5.282;2023-04-25T13:49:21;2.20;;;0.88;;
27666;SDS011;15074;50.940;5.282;2023-04-25T13:51:47;2.47;;;0.90;;
27666;SDS011;15074;50.940;5.282;2023-04-25T13:54:13;1.58;;;0.90;;
27666;SDS011;15074;50.940;5.282;2023-04-25T13:56:39;3.40;;;1.00;;
27666;SDS011;15074;50.940;5.282;2023-04-25T13:59:07;2.47;;;1.10;;
27666;SDS011;15074;50.940;5.282;2023-04-25T14:01:32;1.98;;;1.27;;
27666;SDS011;15074;50.940;5.282;2023-04-25T14:04:00;2.45;;;1.13;;
27666;SDS011;15074;50.940;5.282;2023-04-25T14:06:26;1.65;;;0.80;;
27666;SDS011;15074;50.940;5.282;2023-04-25T14:08:52;2.30;;;0.93;;
27666;SDS011;15074;50.940;5.282;2023-04-25T14:11:19;3.95;;;1.00;;
27666;SDS011;15074;50.940;5.282;2023-04-25T14:13:45;1.75;;;0.75;;
27666;SDS011;15074;50.940;5.282;2023-04-25T14:16:11;2.55;;;0.75;;
27666;SDS011;15074;50.940;5.282;2023-04-25T14:18:36;1.83;;;0.90;;
27666;SDS011;15074;50.940;5.282;2023-04-25T14:21:02;2.65;;;0.93;;
27666;SDS011;15074;50.940;5.282;2023-04-25T14:23:28;1.50;;;0.70;;
27666;SDS011;15074;50.940;5.282;2023-04-25T14:25:53;1.45;;;0.60;;
27666;SDS011;15074;50.940;5.282;2023-04-25T14:28:20;0.80;;;0.60;;
27666;SDS011;15074;50.940;5.282;2023-04-25T14:30:45;2.72;;;0.75;;
27666;SDS011;15074;50.940;5.282;2023-04-25T14:33:11;1.70;;;0.77;;
27666;SDS011;15074;50.940;5.282;2023-04-25T14:35:38;1.98;;;0.80;;
27666;SDS011;15074;50.940;5.282;2023-04-25T14:38:07;2.65;;;0.90;;
27666;SDS011;15074;50.940;5.282;2023-04-25T14:40:33;2.20;;;0.90;;
27666;SDS011;15074;50.940;5.282;2023-04-25T14:42:59;2.22;;;1.08;;
27666;SDS011;15074;50.940;5.282;2023-04-25T14:45:24;2.75;;;1.10;;
27666;SDS011;15074;50.940;5.282;2023-04-25T14:47:50;2.30;;;0.90;;
27666;SDS011;15074;50.940;5.282;2023-04-25T14:50:16;2.13;;;1.00;;
27666;SDS011;15074;50.940;5.282;2023-04-25T14:52:42;2.65;;;1.00;;
27666;SDS011;15074;50.940;5.282;2023-04-25T14:55:09;3.08;;;1.20;;
27666;SDS011;15074;50.940;5.282;2023-04-25T14:57:34;2.60;;;1.10;;
27666;SDS011;15074;50.940;5.282;2023-04-25T15:00:00;3.25;;;1.10;;
27666;SDS011;15074;50.940;5.282;2023-04-25T15:02:27;1.92;;;0.90;;
27666;SDS011;15074;50.940;5.282;2023-04-25T15:04:53;2.90;;;0.98;;
27666;SDS011;15074;50.940;5.282;2023-04-25T15:07:20;2.05;;;0.95;;
27666;SDS011;15074;50.940;5.282;2023-04-25T15:09:47;1.92;;;0.82;;
27666;SDS011;15074;50.940;5.282;2023-04-25T15:12:13;3.45;;;1.27;;
27666;SDS011;15074;50.940;5.282;2023-04-25T15:14:39;2.90;;;0.95;;
27666;SDS011;15074;50.940;5.282;2023-04-25T15:17:05;3.97;;;1.25;;
27666;SDS011;15074;50.940;5.282;2023-04-25T15:19:31;1.92;;;0.90;;
27666;SDS011;15074;50.940;5.282;2023-04-25T15:21:57;1.88;;;0.98;;
27666;SDS011;15074;50.940;5.282;2023-04-25T15:24:26;2.85;;;1.13;;
27666;SDS011;15074;50.940;5.282;2023-04-25T15:26:52;2.83;;;1.23;;
27666;SDS011;15074;50.940;5.282;2023-04-25T15:29:18;3.72;;;1.17;;
27666;SDS011;15074;50.940;5.282;2023-04-25T15:31:44;6.07;;;1.77;;
27666;SDS011;15074;50.940;5.282;2023-04-25T15:34:10;3.95;;;1.13;;
27666;SDS011;15074;50.940;5.282;2023-04-25T15:36:35;3.90;;;1.20;;
27666;SDS011;15074;50.940;5.282;2023-04-25T15:39:01;6.68;;;1.40;;
27666;SDS011;15074;50.940;5.282;2023-04-25T15:41:28;7.05;;;2.95;;
27666;SDS011;15074;50.940;5.282;2023-04-25T15:43:54;10.60;;;5.15;;
27666;SDS011;15074;50.940;5.282;2023-04-25T15:46:20;8.93;;;1.67;;
27666;SDS011;15074;50.940;5.282;2023-04-25T15:51:13;5.20;;;1.25;;
27666;SDS011;15074;50.940;5.282;2023-04-25T15:53:39;3.40;;;1.00;;
27666;SDS011;15074;50.940;5.282;2023-04-25T15:56:05;4.03;;;1.30;;
27666;SDS011;15074;50.940;5.282;2023-04-25T15:58:31;6.03;;;1.20;;
27666;SDS011;15074;50.940;5.282;2023-04-25T16:00:57;3.67;;;1.05;;
27666;SDS011;15074;50.940;5.282;2023-04-25T16:03:22;3.10;;;0.95;;
27666;SDS011;15074;50.940;5.282;2023-04-25T16:05:48;3.22;;;1.10;;
27666;SDS011;15074;50.940;5.282;2023-04-25T16:08:14;6.22;;;1.58;;
27666;SDS011;15074;50.940;5.282;2023-04-25T16:10:40;8.63;;;1.40;;
27666;SDS011;15074;50.940;5.282;2023-04-25T16:13:06;2.85;;;1.23;;
27666;SDS011;15074;50.940;5.282;2023-04-25T16:15:31;6.13;;;1.10;;
27666;SDS011;15074;50.940;5.282;2023-04-25T16:17:57;3.65;;;1.27;;
27666;SDS011;15074;50.940;5.282;2023-04-25T16:20:23;5.10;;;1.40;;
27666;SDS011;15074;50.940;5.282;2023-04-25T16:22:48;3.67;;;1.38;;
27666;SDS011;15074;50.940;5.282;2023-04-25T16:25:14;4.10;;;1.30;;
27666;SDS011;15074;50.940;5.282;2023-04-25T16:27:40;2.67;;;1.10;;
27666;SDS011;15074;50.940;5.282;2023-04-25T16:30:06;1.73;;;1.00;;
27666;SDS011;15074;50.940;5.282;2023-04-25T16:32:34;2.90;;;1.52;;
27666;SDS011;15074;50.940;5.282;2023-04-25T16:35:00;3.28;;;1.10;;
27666;SDS011;15074;50.940;5.282;2023-04-25T16:37:26;3.47;;;1.25;;
27666;SDS011;15074;50.940;5.282;2023-04-25T16:39:51;2.42;;;1.00;;
27666;SDS011;15074;50.940;5.282;2023-04-25T16:42:17;2.47;;;0.93;;
27666;SDS011;15074;50.940;5.282;2023-04-25T16:44:43;4.80;;;2.10;;
27666;SDS011;15074;50.940;5.282;2023-04-25T16:47:09;2.97;;;1.20;;
27666;SDS011;15074;50.940;5.282;2023-04-25T16:49:34;3.13;;;1.15;;
27666;SDS011;15074;50.940;5.282;2023-04-25T16:52:00;2.90;;;1.13;;
27666;SDS011;15074;50.940;5.282;2023-04-25T16:54:26;2.95;;;1.00;;
27666;SDS011;15074;50.940;5.282;2023-04-25T16:56:52;4.97;;;1.10;;
27666;SDS011;15074;50.940;5.282;2023-04-25T16:59:18;3.17;;;0.98;;
27666;SDS011;15074;50.940;5.282;2023-04-25T17:01:44;9.13;;;1.40;;
27666;SDS011;15074;50.940;5.282;2023-04-25T17:04:10;3.55;;;0.98;;
27666;SDS011;15074;50.940;5.282;2023-04-25T17:06:35;4.65;;;1.10;;
27666;SDS011;15074;50.940;5.282;2023-04-25T17:09:02;3.33;;;1.20;;
27666;SDS011;15074;50.940;5.282;2023-04-25T17:11:27;3.08;;;0.90;;
27666;SDS011;15074;50.940;5.282;2023-04-25T17:40:42;2.35;;;1.10;;
27666;SDS011;15074;50.940;5.282;2023-04-25T17:43:08;3.90;;;1.00;;
27666;SDS011;15074;50.940;5.282;2023-04-25T17:45:33;3.55;;;1.30;;
27666;SDS011;15074;50.940;5.282;2023-04-25T17:48:00;3.67;;;1.60;;
27666;SDS011;15074;50.940;5.282;2023-04-25T17:50:27;3.80;;;1.42;;
27666;SDS011;15074;50.940;5.282;2023-04-25T18:43:28;4.20;;;1.30;;
27666;SDS011;15074;50.940;5.282;2023-04-25T18:45:54;2.58;;;1.15;;
27666;SDS011;15074;50.940;5.282;2023-04-25T18:48:19;2.25;;;1.00;;
27666;SDS011;15074;50.940;5.282;2023-04-25T18:50:45;4.03;;;1.48;;
27666;SDS011;15074;50.940;5.282;2023-04-25T18:53:11;5.07;;;1.73;;
27666;SDS011;15074;50.940;5.282;2023-04-25T18:55:37;4.20;;;1.50;;
27666;SDS011;15074;50.940;5.282;2023-04-25T18:58:04;3.97;;;1.33;;
27666;SDS011;15074;50.940;5.282;2023-04-25T19:00:32;3.75;;;1.52;;
27666;SDS011;15074;50.940;5.282;2023-04-25T19:02:58;2.70;;;1.60;;
27666;SDS011;15074;50.940;5.282;2023-04-25T19:05:28;5.45;;;1.60;;
27666;SDS011;15074;50.940;5.282;2023-04-25T19:07:57;4.32;;;1.88;;
27666;SDS011;15074;50.940;5.282;2023-04-25T19:10:22;3.28;;;1.42;;
27666;SDS011;15074;50.940;5.282;2023-04-25T19:12:48;6.80;;;1.92;;
27666;SDS011;15074;50.940;5.282;2023-04-25T19:15:14;5.05;;;1.80;;
27666;SDS011;15074;50.940;5.282;2023-04-25T19:17:40;8.13;;;2.38;;
27666;SDS011;15074;50.940;5.282;2023-04-25T19:20:07;5.93;;;1.73;;
27666;SDS011;15074;50.940;5.282;2023-04-25T19:22:33;7.85;;;1.58;;
27666;SDS011;15074;50.940;5.282;2023-04-25T19:24:59;3.22;;;1.60;;
27666;SDS011;15074;50.940;5.282;2023-04-25T19:27:24;6.43;;;2.13;;
27666;SDS011;15074;50.940;5.282;2023-04-25T19:29:50;6.05;;;2.20;;
27666;SDS011;15074;50.940;5.282;2023-04-25T19:32:22;4.50;;;1.70;;
27666;SDS011;15074;50.940;5.282;2023-04-25T19:34:48;7.72;;;2.75;;
27666;SDS011;15074;50.940;5.282;2023-04-25T19:37:14;4.47;;;2.03;;
27666;SDS011;15074;50.940;5.282;2023-04-25T19:39:39;4.28;;;2.35;;
27666;SDS011;15074;50.940;5.282;2023-04-25T19:42:05;7.30;;;2.45;;
27666;SDS011;15074;50.940;5.282;2023-04-25T19:44:31;4.00;;;2.38;;
27666;SDS011;15074;50.940;5.282;2023-04-25T19:46:57;6.70;;;2.55;;
27666;SDS011;15074;50.940;5.282;2023-04-25T19:49:24;6.18;;;2.20;;
27666;SDS011;15074;50.940;5.282;2023-04-25T19:51:50;3.58;;;2.50;;